sensor_id;sensor_type;location;lat;lon;timestamp;P1;durP1;ratioP1;P2;durP2;ratioP2
11970;SDS011;6045;42.682;23.294;2022-08-19T00:01:18;10.10;;;6.45;;
11970;SDS011;6045;42.682;23.294;2022-08-19T00:03:45;6.78;;;5.88;;
11970;SDS011;6045;42.682;23.294;2022-08-19T00:06:12;6.28;;;5.68;;
11970;SDS011;6045;42.682;23.294;2022-08-19T00:08:39;7.10;;;6.18;;
11970;SDS011;6045;42.682;23.294;2022-08-19T00:11:06;7.25;;;6.38;;
11970;SDS011;6045;42.682;23.294;2022-08-19T00:13:33;7.85;;;5.90;;
11970;SDS011;6045;42.682;23.294;2022-08-19T00:16:02;8.77;;;6.30;;
11970;SDS011;6045;42.682;23.294;2022-08-19T00:18:30;6.40;;;5.80;;
11970;SDS011;6045;42.682;23.294;2022-08-19T00:20:58;6.97;;;6.28;;
11970;SDS011;6045;42.682;23.294;2022-08-19T00:23:25;8.15;;;6.15;;
11970;SDS011;6045;42.682;23.294;2022-08-19T00:25:53;6.55;;;5.95;;
11970;SDS011;6045;42.682;23.294;2022-08-19T00:28:20;8.07;;;5.88;;
11970;SDS011;6045;42.682;23.294;2022-08-19T00:30:47;7.20;;;6.50;;
11970;SDS011;6045;42.682;23.294;2022-08-19T00:33:15;6.80;;;6.20;;
11970;SDS011;6045;42.682;23.294;2022-08-19T00:35:42;6.68;;;6.05;;
11970;SDS011;6045;42.682;23.294;2022-08-19T00:38:09;8.07;;;6.40;;
11970;SDS011;6045;42.682;23.294;2022-08-19T00:40:35;8.68;;;6.53;;
11970;SDS011;6045;42.682;23.294;2022-08-19T00:43:07;6.90;;;6.05;;
11970;SDS011;6045;42.682;23.294;2022-08-19T00:45:34;7.00;;;6.28;;
11970;SDS011;6045;42.682;23.294;2022-08-19T00:48:02;7.95;;;6.75;;
11970;SDS011;6045;42.682;23.294;2022-08-19T00:50:31;7.38;;;5.78;;
11970;SDS011;6045;42.682;23.294;2022-08-19T00:52:58;6.82;;;6.22;;
11970;SDS011;6045;42.682;23.294;2022-08-19T00:55:29;6.95;;;6.22;;
11970;SDS011;6045;42.682;23.294;2022-08-19T00:57:58;7.18;;;6.47;;
11970;SDS011;6045;42.682;23.294;2022-08-19T01:00:28;10.75;;;6.68;;
11970;SDS011;6045;42.682;23.294;2022-08-19T01:02:56;6.07;;;5.47;;
11970;SDS011;6045;42.682;23.294;2022-08-19T01:05:27;8.23;;;6.28;;
11970;SDS011;6045;42.682;23.294;2022-08-19T01:07:57;7.30;;;6.20;;
11970;SDS011;6045;42.682;23.294;2022-08-19T01:10:28;7.20;;;6.60;;
11970;SDS011;6045;42.682;23.294;2022-08-19T01:12:58;9.23;;;6.28;;
11970;SDS011;6045;42.682;23.294;2022-08-19T01:15:27;6.43;;;5.85;;
11970;SDS011;6045;42.682;23.294;2022-08-19T01:17:57;8.23;;;5.97;;
11970;SDS011;6045;42.682;23.294;2022-08-19T01:20:27;6.43;;;5.82;;
11970;SDS011;6045;42.682;23.294;2022-08-19T01:22:56;6.90;;;6.18;;
11970;SDS011;6045;42.682;23.294;2022-08-19T01:25:26;6.88;;;6.03;;
11970;SDS011;6045;42.682;23.294;2022-08-19T01:27:55;7.20;;;6.47;;
11970;SDS011;6045;42.682;23.294;2022-08-19T01:30:23;7.35;;;6.68;;
11970;SDS011;6045;42.682;23.294;2022-08-19T01:32:58;6.85;;;6.07;;
11970;SDS011;6045;42.682;23.294;2022-08-19T01:35:26;6.45;;;5.88;;
11970;SDS011;6045;42.682;23.294;2022-08-19T01:37:57;7.88;;;6.53;;
11970;SDS011;6045;42.682;23.294;2022-08-19T01:40:26;7.55;;;6.20;;
11970;SDS011;6045;42.682;23.294;2022-08-19T01:42:56;8.25;;;6.57;;
11970;SDS011;6045;42.682;23.294;2022-08-19T01:45:24;10.68;;;6.45;;
11970;SDS011;6045;42.682;23.294;2022-08-19T01:47:53;7.25;;;6.57;;
11970;SDS011;6045;42.682;23.294;2022-08-19T01:50:21;6.95;;;6.00;;
11970;SDS011;6045;42.682;23.294;2022-08-19T01:52:48;8.98;;;6.13;;
11970;SDS011;6045;42.682;23.294;2022-08-19T01:55:17;6.53;;;5.93;;
11970;SDS011;6045;42.682;23.294;2022-08-19T01:57:50;6.57;;;5.97;;
11970;SDS011;6045;42.682;23.294;2022-08-19T02:00:22;11.20;;;6.55;;
11970;SDS011;6045;42.682;23.294;2022-08-19T02:02:51;6.97;;;6.35;;
11970;SDS011;6045;42.682;23.294;2022-08-19T02:05:19;8.85;;;6.70;;
11970;SDS011;6045;42.682;23.294;2022-08-19T02:07:46;6.95;;;6.35;;
11970;SDS011;6045;42.682;23.294;2022-08-19T02:10:16;7.45;;;6.68;;
11970;SDS011;6045;42.682;23.294;2022-08-19T02:12:46;7.88;;;6.45;;
11970;SDS011;6045;42.682;23.294;2022-08-19T02:15:14;8.30;;;6.53;;
11970;SDS011;6045;42.682;23.294;2022-08-19T02:17:41;7.50;;;6.70;;
11970;SDS011;6045;42.682;23.294;2022-08-19T02:20:10;7.65;;;6.70;;
11970;SDS011;6045;42.682;23.294;2022-08-19T02:22:38;7.65;;;6.70;;
11970;SDS011;6045;42.682;23.294;2022-08-19T02:25:06;7.85;;;6.20;;
11970;SDS011;6045;42.682;23.294;2022-08-19T02:27:35;7.18;;;6.35;;
11970;SDS011;6045;42.682;23.294;2022-08-19T02:30:03;6.85;;;6.25;;
11970;SDS011;6045;42.682;23.294;2022-08-19T02:32:36;6.80;;;6.13;;
11970;SDS011;6045;42.682;23.294;2022-08-19T02:35:04;7.25;;;6.55;;
11970;SDS011;6045;42.682;23.294;2022-08-19T02:37:34;9.07;;;7.03;;
11970;SDS011;6045;42.682;23.294;2022-08-19T02:40:18;6.72;;;6.07;;
11970;SDS011;6045;42.682;23.294;2022-08-19T02:42:47;7.18;;;6.47;;
11970;SDS011;6045;42.682;23.294;2022-08-19T02:45:14;7.45;;;5.95;;
11970;SDS011;6045;42.682;23.294;2022-08-19T02:47:41;7.22;;;6.22;;
11970;SDS011;6045;42.682;23.294;2022-08-19T02:50:08;6.10;;;5.50;;
11970;SDS011;6045;42.682;23.294;2022-08-19T02:52:36;7.13;;;6.20;;
11970;SDS011;6045;42.682;23.294;2022-08-19T02:55:03;6.93;;;6.22;;
11970;SDS011;6045;42.682;23.294;2022-08-19T02:57:31;7.32;;;5.63;;
11970;SDS011;6045;42.682;23.294;2022-08-19T03:00:00;6.82;;;6.13;;
11970;SDS011;6045;42.682;23.294;2022-08-19T03:02:30;6.93;;;6.32;;
11970;SDS011;6045;42.682;23.294;2022-08-19T03:04:56;9.15;;;6.22;;
11970;SDS011;6045;42.682;23.294;2022-08-19T03:07:23;6.82;;;6.13;;
11970;SDS011;6045;42.682;23.294;2022-08-19T03:09:50;7.20;;;6.15;;
11970;SDS011;6045;42.682;23.294;2022-08-19T03:12:17;7.82;;;7.13;;
11970;SDS011;6045;42.682;23.294;2022-08-19T03:14:44;6.45;;;5.85;;
11970;SDS011;6045;42.682;23.294;2022-08-19T03:17:13;7.15;;;6.55;;
11970;SDS011;6045;42.682;23.294;2022-08-19T03:19:40;8.27;;;6.80;;
11970;SDS011;6045;42.682;23.294;2022-08-19T03:22:08;7.40;;;6.70;;
11970;SDS011;6045;42.682;23.294;2022-08-19T03:24:35;7.40;;;6.70;;
11970;SDS011;6045;42.682;23.294;2022-08-19T03:27:02;10.30;;;7.03;;
11970;SDS011;6045;42.682;23.294;2022-08-19T03:29:30;7.45;;;6.57;;
11970;SDS011;6045;42.682;23.294;2022-08-19T03:31:58;7.70;;;6.78;;
11970;SDS011;6045;42.682;23.294;2022-08-19T03:34:29;7.30;;;6.43;;
11970;SDS011;6045;42.682;23.294;2022-08-19T03:36:58;7.25;;;6.55;;
11970;SDS011;6045;42.682;23.294;2022-08-19T03:39:31;7.90;;;6.60;;
11970;SDS011;6045;42.682;23.294;2022-08-19T03:41:57;6.53;;;5.90;;
11970;SDS011;6045;42.682;23.294;2022-08-19T03:44:25;7.47;;;6.75;;
11970;SDS011;6045;42.682;23.294;2022-08-19T03:46:52;7.32;;;6.65;;
11970;SDS011;6045;42.682;23.294;2022-08-19T03:49:22;8.13;;;6.57;;
11970;SDS011;6045;42.682;23.294;2022-08-19T03:51:52;9.13;;;6.78;;
11970;SDS011;6045;42.682;23.294;2022-08-19T03:54:22;7.57;;;6.45;;
11970;SDS011;6045;42.682;23.294;2022-08-19T03:56:51;7.38;;;6.63;;
11970;SDS011;6045;42.682;23.294;2022-08-19T03:59:21;9.20;;;7.10;;
11970;SDS011;6045;42.682;23.294;2022-08-19T04:01:51;9.25;;;7.15;;
11970;SDS011;6045;42.682;23.294;2022-08-19T04:04:18;8.40;;;7.25;;
11970;SDS011;6045;42.682;23.294;2022-08-19T04:06:45;17.05;;;7.22;;
11970;SDS011;6045;42.682;23.294;2022-08-19T04:09:14;8.15;;;7.15;;
11970;SDS011;6045;42.682;23.294;2022-08-19T04:11:42;7.90;;;7.20;;
11970;SDS011;6045;42.682;23.294;2022-08-19T04:14:11;8.02;;;6.65;;
11970;SDS011;6045;42.682;23.294;2022-08-19T04:16:40;10.65;;;7.25;;
11970;SDS011;6045;42.682;23.294;2022-08-19T04:19:07;7.25;;;6.65;;
11970;SDS011;6045;42.682;23.294;2022-08-19T04:21:34;7.68;;;6.80;;
11970;SDS011;6045;42.682;23.294;2022-08-19T04:24:01;11.40;;;8.15;;
11970;SDS011;6045;42.682;23.294;2022-08-19T04:26:31;10.30;;;7.82;;
11970;SDS011;6045;42.682;23.294;2022-08-19T04:29:04;8.98;;;8.05;;
11970;SDS011;6045;42.682;23.294;2022-08-19T04:31:32;13.07;;;8.13;;
11970;SDS011;6045;42.682;23.294;2022-08-19T04:34:01;8.82;;;7.70;;
11970;SDS011;6045;42.682;23.294;2022-08-19T04:36:31;9.07;;;7.25;;
11970;SDS011;6045;42.682;23.294;2022-08-19T04:39:02;9.65;;;7.07;;
11970;SDS011;6045;42.682;23.294;2022-08-19T04:41:33;8.10;;;7.30;;
11970;SDS011;6045;42.682;23.294;2022-08-19T04:44:18;9.77;;;7.60;;
11970;SDS011;6045;42.682;23.294;2022-08-19T04:46:46;7.95;;;7.15;;
11970;SDS011;6045;42.682;23.294;2022-08-19T04:49:14;10.63;;;7.72;;
11970;SDS011;6045;42.682;23.294;2022-08-19T04:51:42;10.43;;;7.53;;
11970;SDS011;6045;42.682;23.294;2022-08-19T04:54:11;9.43;;;7.55;;
11970;SDS011;6045;42.682;23.294;2022-08-19T04:56:40;10.65;;;8.18;;
11970;SDS011;6045;42.682;23.294;2022-08-19T04:59:07;9.98;;;7.78;;
11970;SDS011;6045;42.682;23.294;2022-08-19T05:01:35;8.95;;;8.05;;
11970;SDS011;6045;42.682;23.294;2022-08-19T05:04:03;9.93;;;8.48;;
11970;SDS011;6045;42.682;23.294;2022-08-19T05:06:32;11.65;;;8.00;;
11970;SDS011;6045;42.682;23.294;2022-08-19T05:09:00;9.27;;;8.45;;
11970;SDS011;6045;42.682;23.294;2022-08-19T05:11:27;9.65;;;8.50;;
11970;SDS011;6045;42.682;23.294;2022-08-19T05:13:57;12.63;;;8.90;;
11970;SDS011;6045;42.682;23.294;2022-08-19T05:16:24;9.35;;;8.40;;
11970;SDS011;6045;42.682;23.294;2022-08-19T05:18:54;11.30;;;8.63;;
11970;SDS011;6045;42.682;23.294;2022-08-19T05:21:39;10.43;;;8.50;;
11970;SDS011;6045;42.682;23.294;2022-08-19T05:24:24;9.95;;;8.20;;
11970;SDS011;6045;42.682;23.294;2022-08-19T05:26:52;9.07;;;8.13;;
11970;SDS011;6045;42.682;23.294;2022-08-19T05:29:25;9.88;;;8.70;;
11970;SDS011;6045;42.682;23.294;2022-08-19T05:31:53;12.32;;;8.57;;
11970;SDS011;6045;42.682;23.294;2022-08-19T05:34:24;9.57;;;7.97;;
11970;SDS011;6045;42.682;23.294;2022-08-19T05:36:52;9.35;;;8.48;;
11970;SDS011;6045;42.682;23.294;2022-08-19T05:39:24;9.48;;;8.38;;
11970;SDS011;6045;42.682;23.294;2022-08-19T05:41:53;12.65;;;9.35;;
11970;SDS011;6045;42.682;23.294;2022-08-19T05:44:22;12.38;;;9.02;;
11970;SDS011;6045;42.682;23.294;2022-08-19T05:46:51;13.93;;;9.48;;
11970;SDS011;6045;42.682;23.294;2022-08-19T05:49:20;14.18;;;10.20;;
11970;SDS011;6045;42.682;23.294;2022-08-19T05:51:48;12.13;;;10.13;;
11970;SDS011;6045;42.682;23.294;2022-08-19T05:54:15;10.50;;;9.45;;
11970;SDS011;6045;42.682;23.294;2022-08-19T05:56:42;10.30;;;9.00;;
11970;SDS011;6045;42.682;23.294;2022-08-19T05:59:14;10.25;;;9.15;;
11970;SDS011;6045;42.682;23.294;2022-08-19T06:01:45;12.48;;;9.32;;
11970;SDS011;6045;42.682;23.294;2022-08-19T06:04:17;11.32;;;10.10;;
11970;SDS011;6045;42.682;23.294;2022-08-19T06:06:52;11.32;;;9.98;;
11970;SDS011;6045;42.682;23.294;2022-08-19T06:09:25;13.18;;;10.05;;
11970;SDS011;6045;42.682;23.294;2022-08-19T06:12:12;11.15;;;10.05;;
11970;SDS011;6045;42.682;23.294;2022-08-19T06:14:39;13.52;;;9.55;;
11970;SDS011;6045;42.682;23.294;2022-08-19T06:17:08;13.40;;;9.52;;
11970;SDS011;6045;42.682;23.294;2022-08-19T06:19:44;11.27;;;9.70;;
11970;SDS011;6045;42.682;23.294;2022-08-19T06:22:16;10.85;;;9.85;;
11970;SDS011;6045;42.682;23.294;2022-08-19T06:24:43;11.85;;;9.65;;
11970;SDS011;6045;42.682;23.294;2022-08-19T06:27:13;12.68;;;10.52;;
11970;SDS011;6045;42.682;23.294;2022-08-19T06:29:42;12.20;;;10.55;;
11970;SDS011;6045;42.682;23.294;2022-08-19T06:32:15;11.43;;;9.68;;
11970;SDS011;6045;42.682;23.294;2022-08-19T06:34:43;13.38;;;9.73;;
11970;SDS011;6045;42.682;23.294;2022-08-19T06:37:10;9.80;;;8.50;;
11970;SDS011;6045;42.682;23.294;2022-08-19T06:39:39;10.98;;;8.70;;
11970;SDS011;6045;42.682;23.294;2022-08-19T06:42:07;11.23;;;9.90;;
11970;SDS011;6045;42.682;23.294;2022-08-19T06:44:36;18.95;;;11.30;;
11970;SDS011;6045;42.682;23.294;2022-08-19T06:47:06;14.70;;;10.93;;
11970;SDS011;6045;42.682;23.294;2022-08-19T06:49:36;13.13;;;10.45;;
11970;SDS011;6045;42.682;23.294;2022-08-19T06:52:03;11.88;;;10.00;;
11970;SDS011;6045;42.682;23.294;2022-08-19T06:54:32;10.80;;;9.00;;
11970;SDS011;6045;42.682;23.294;2022-08-19T06:57:00;9.48;;;8.45;;
11970;SDS011;6045;42.682;23.294;2022-08-19T06:59:29;9.73;;;8.63;;
11970;SDS011;6045;42.682;23.294;2022-08-19T07:01:58;11.27;;;9.25;;
11970;SDS011;6045;42.682;23.294;2022-08-19T07:04:29;11.23;;;8.65;;
11970;SDS011;6045;42.682;23.294;2022-08-19T07:06:59;11.07;;;9.20;;
11970;SDS011;6045;42.682;23.294;2022-08-19T07:09:28;10.07;;;8.85;;
11970;SDS011;6045;42.682;23.294;2022-08-19T07:11:55;9.48;;;8.40;;
11970;SDS011;6045;42.682;23.294;2022-08-19T07:14:23;8.80;;;8.00;;
11970;SDS011;6045;42.682;23.294;2022-08-19T07:16:53;9.90;;;9.00;;
11970;SDS011;6045;42.682;23.294;2022-08-19T07:19:23;13.27;;;8.30;;
11970;SDS011;6045;42.682;23.294;2022-08-19T07:21:53;9.73;;;8.18;;
11970;SDS011;6045;42.682;23.294;2022-08-19T07:24:23;11.35;;;9.07;;
11970;SDS011;6045;42.682;23.294;2022-08-19T07:26:52;9.35;;;8.55;;
11970;SDS011;6045;42.682;23.294;2022-08-19T07:29:20;11.07;;;8.15;;
11970;SDS011;6045;42.682;23.294;2022-08-19T07:31:48;9.38;;;8.27;;
11970;SDS011;6045;42.682;23.294;2022-08-19T07:34:16;11.85;;;8.13;;
11970;SDS011;6045;42.682;23.294;2022-08-19T07:36:44;8.98;;;8.07;;
11970;SDS011;6045;42.682;23.294;2022-08-19T07:39:11;9.48;;;7.90;;
11970;SDS011;6045;42.682;23.294;2022-08-19T07:41:41;10.70;;;7.63;;
11970;SDS011;6045;42.682;23.294;2022-08-19T07:44:08;9.52;;;8.50;;
11970;SDS011;6045;42.682;23.294;2022-08-19T07:46:36;9.48;;;7.40;;
11970;SDS011;6045;42.682;23.294;2022-08-19T07:49:05;9.35;;;7.10;;
11970;SDS011;6045;42.682;23.294;2022-08-19T07:51:33;8.57;;;7.57;;
11970;SDS011;6045;42.682;23.294;2022-08-19T07:54:00;8.20;;;7.20;;
11970;SDS011;6045;42.682;23.294;2022-08-19T07:56:27;10.55;;;7.45;;
11970;SDS011;6045;42.682;23.294;2022-08-19T07:58:55;9.18;;;8.23;;
11970;SDS011;6045;42.682;23.294;2022-08-19T08:01:23;10.68;;;8.23;;
11970;SDS011;6045;42.682;23.294;2022-08-19T08:03:52;9.43;;;7.47;;
11970;SDS011;6045;42.682;23.294;2022-08-19T08:06:38;9.30;;;8.00;;
11970;SDS011;6045;42.682;23.294;2022-08-19T08:09:23;8.65;;;7.35;;
11970;SDS011;6045;42.682;23.294;2022-08-19T08:11:53;9.30;;;7.18;;
11970;SDS011;6045;42.682;23.294;2022-08-19T08:14:24;10.05;;;7.10;;
11970;SDS011;6045;42.682;23.294;2022-08-19T08:16:52;8.98;;;8.07;;
11970;SDS011;6045;42.682;23.294;2022-08-19T08:19:20;10.88;;;7.07;;
11970;SDS011;6045;42.682;23.294;2022-08-19T08:21:49;11.68;;;8.40;;
11970;SDS011;6045;42.682;23.294;2022-08-19T08:24:17;8.25;;;7.45;;
11970;SDS011;6045;42.682;23.294;2022-08-19T08:26:48;7.90;;;7.10;;
11970;SDS011;6045;42.682;23.294;2022-08-19T08:29:18;8.65;;;6.85;;
11970;SDS011;6045;42.682;23.294;2022-08-19T08:31:46;7.63;;;6.85;;
11970;SDS011;6045;42.682;23.294;2022-08-19T08:34:13;12.15;;;7.47;;
11970;SDS011;6045;42.682;23.294;2022-08-19T08:36:42;7.28;;;6.57;;
11970;SDS011;6045;42.682;23.294;2022-08-19T08:39:11;8.23;;;6.20;;
11970;SDS011;6045;42.682;23.294;2022-08-19T08:41:41;7.10;;;6.40;;
11970;SDS011;6045;42.682;23.294;2022-08-19T08:44:19;6.88;;;6.03;;
11970;SDS011;6045;42.682;23.294;2022-08-19T08:46:50;6.82;;;6.05;;
11970;SDS011;6045;42.682;23.294;2022-08-19T08:49:25;5.53;;;5.05;;
11970;SDS011;6045;42.682;23.294;2022-08-19T08:51:58;5.65;;;5.05;;
11970;SDS011;6045;42.682;23.294;2022-08-19T08:54:30;5.32;;;4.85;;
11970;SDS011;6045;42.682;23.294;2022-08-19T08:57:04;5.25;;;4.75;;
11970;SDS011;6045;42.682;23.294;2022-08-19T08:59:39;5.38;;;4.80;;
11970;SDS011;6045;42.682;23.294;2022-08-19T09:02:09;7.65;;;5.20;;
11970;SDS011;6045;42.682;23.294;2022-08-19T09:04:36;6.72;;;5.50;;
11970;SDS011;6045;42.682;23.294;2022-08-19T09:07:10;5.60;;;4.97;;
11970;SDS011;6045;42.682;23.294;2022-08-19T09:09:48;5.93;;;5.30;;
11970;SDS011;6045;42.682;23.294;2022-08-19T09:12:21;5.53;;;5.03;;
11970;SDS011;6045;42.682;23.294;2022-08-19T09:15:00;11.02;;;5.97;;
11970;SDS011;6045;42.682;23.294;2022-08-19T09:17:31;5.32;;;4.93;;
11970;SDS011;6045;42.682;23.294;2022-08-19T09:19:59;5.93;;;5.32;;
11970;SDS011;6045;42.682;23.294;2022-08-19T09:22:32;4.97;;;4.57;;
11970;SDS011;6045;42.682;23.294;2022-08-19T09:25:00;5.55;;;5.00;;
11970;SDS011;6045;42.682;23.294;2022-08-19T09:27:28;7.10;;;4.97;;
11970;SDS011;6045;42.682;23.294;2022-08-19T09:29:57;5.03;;;4.63;;
11970;SDS011;6045;42.682;23.294;2022-08-19T09:32:24;4.50;;;4.10;;
11970;SDS011;6045;42.682;23.294;2022-08-19T09:34:53;5.47;;;3.95;;
11970;SDS011;6045;42.682;23.294;2022-08-19T09:37:23;4.55;;;4.00;;
11970;SDS011;6045;42.682;23.294;2022-08-19T09:39:50;5.50;;;4.78;;
11970;SDS011;6045;42.682;23.294;2022-08-19T09:42:17;4.60;;;4.20;;
11970;SDS011;6045;42.682;23.294;2022-08-19T09:44:44;4.38;;;4.07;;
11970;SDS011;6045;42.682;23.294;2022-08-19T09:47:11;4.35;;;3.92;;
11970;SDS011;6045;42.682;23.294;2022-08-19T09:49:40;4.63;;;4.22;;
11970;SDS011;6045;42.682;23.294;2022-08-19T09:52:09;4.47;;;4.07;;
11970;SDS011;6045;42.682;23.294;2022-08-19T09:54:37;3.95;;;3.58;;
11970;SDS011;6045;42.682;23.294;2022-08-19T09:57:04;3.95;;;3.63;;
11970;SDS011;6045;42.682;23.294;2022-08-19T09:59:31;4.22;;;3.60;;
11970;SDS011;6045;42.682;23.294;2022-08-19T10:01:58;5.97;;;4.20;;
11970;SDS011;6045;42.682;23.294;2022-08-19T10:04:25;5.43;;;4.22;;
11970;SDS011;6045;42.682;23.294;2022-08-19T10:07:13;4.10;;;3.70;;
11970;SDS011;6045;42.682;23.294;2022-08-19T10:09:40;5.20;;;4.60;;
11970;SDS011;6045;42.682;23.294;2022-08-19T10:12:08;5.75;;;4.53;;
11970;SDS011;6045;42.682;23.294;2022-08-19T10:14:35;5.40;;;4.20;;
11970;SDS011;6045;42.682;23.294;2022-08-19T10:17:02;4.38;;;4.00;;
11970;SDS011;6045;42.682;23.294;2022-08-19T10:19:29;5.68;;;4.47;;
11970;SDS011;6045;42.682;23.294;2022-08-19T10:22:02;6.97;;;4.22;;
11970;SDS011;6045;42.682;23.294;2022-08-19T10:24:31;4.57;;;4.28;;
11970;SDS011;6045;42.682;23.294;2022-08-19T10:27:01;5.88;;;4.32;;
11970;SDS011;6045;42.682;23.294;2022-08-19T10:29:29;6.55;;;4.13;;
11970;SDS011;6045;42.682;23.294;2022-08-19T10:31:59;4.93;;;3.90;;
11970;SDS011;6045;42.682;23.294;2022-08-19T10:34:29;4.40;;;4.00;;
11970;SDS011;6045;42.682;23.294;2022-08-19T10:36:57;5.07;;;4.13;;
11970;SDS011;6045;42.682;23.294;2022-08-19T10:39:25;4.90;;;3.70;;
11970;SDS011;6045;42.682;23.294;2022-08-19T10:41:57;4.47;;;4.10;;
11970;SDS011;6045;42.682;23.294;2022-08-19T10:44:24;4.35;;;3.95;;
11970;SDS011;6045;42.682;23.294;2022-08-19T10:46:51;4.65;;;4.25;;
11970;SDS011;6045;42.682;23.294;2022-08-19T10:49:18;4.60;;;4.20;;
11970;SDS011;6045;42.682;23.294;2022-08-19T10:51:45;5.10;;;4.60;;
11970;SDS011;6045;42.682;23.294;2022-08-19T10:54:30;4.93;;;4.53;;
11970;SDS011;6045;42.682;23.294;2022-08-19T10:57:14;5.68;;;5.13;;
11970;SDS011;6045;42.682;23.294;2022-08-19T10:59:41;6.53;;;5.93;;
11970;SDS011;6045;42.682;23.294;2022-08-19T11:02:08;7.05;;;5.60;;
11970;SDS011;6045;42.682;23.294;2022-08-19T11:04:37;6.45;;;4.90;;
11970;SDS011;6045;42.682;23.294;2022-08-19T11:07:04;7.20;;;5.45;;
11970;SDS011;6045;42.682;23.294;2022-08-19T11:09:36;6.05;;;5.18;;
11970;SDS011;6045;42.682;23.294;2022-08-19T11:12:04;5.50;;;5.00;;
11970;SDS011;6045;42.682;23.294;2022-08-19T11:14:33;5.55;;;5.15;;
11970;SDS011;6045;42.682;23.294;2022-08-19T11:17:01;5.35;;;4.70;;
11970;SDS011;6045;42.682;23.294;2022-08-19T11:19:28;5.45;;;4.80;;
11970;SDS011;6045;42.682;23.294;2022-08-19T11:21:58;5.25;;;4.85;;
11970;SDS011;6045;42.682;23.294;2022-08-19T11:24:27;6.85;;;4.80;;
11970;SDS011;6045;42.682;23.294;2022-08-19T11:26:55;5.75;;;5.07;;
11970;SDS011;6045;42.682;23.294;2022-08-19T11:29:29;5.22;;;4.72;;
11970;SDS011;6045;42.682;23.294;2022-08-19T11:31:59;5.55;;;4.90;;
11970;SDS011;6045;42.682;23.294;2022-08-19T11:34:28;5.25;;;4.85;;
11970;SDS011;6045;42.682;23.294;2022-08-19T11:36:56;5.32;;;4.72;;
11970;SDS011;6045;42.682;23.294;2022-08-19T11:39:25;5.68;;;5.13;;
11970;SDS011;6045;42.682;23.294;2022-08-19T11:41:54;5.15;;;4.65;;
11970;SDS011;6045;42.682;23.294;2022-08-19T11:44:22;5.95;;;5.38;;
11970;SDS011;6045;42.682;23.294;2022-08-19T11:46:49;7.13;;;5.00;;
11970;SDS011;6045;42.682;23.294;2022-08-19T11:49:18;5.38;;;4.88;;
11970;SDS011;6045;42.682;23.294;2022-08-19T11:51:46;5.20;;;4.70;;
11970;SDS011;6045;42.682;23.294;2022-08-19T11:54:15;6.18;;;4.88;;
11970;SDS011;6045;42.682;23.294;2022-08-19T11:56:42;5.50;;;5.10;;
11970;SDS011;6045;42.682;23.294;2022-08-19T11:59:11;5.45;;;4.60;;
11970;SDS011;6045;42.682;23.294;2022-08-19T12:01:39;5.15;;;4.65;;
11970;SDS011;6045;42.682;23.294;2022-08-19T12:04:07;5.43;;;4.60;;
11970;SDS011;6045;42.682;23.294;2022-08-19T12:06:37;5.40;;;4.90;;
11970;SDS011;6045;42.682;23.294;2022-08-19T12:09:07;5.53;;;5.00;;
11970;SDS011;6045;42.682;23.294;2022-08-19T12:11:35;5.07;;;4.68;;
11970;SDS011;6045;42.682;23.294;2022-08-19T12:14:03;7.55;;;4.90;;
11970;SDS011;6045;42.682;23.294;2022-08-19T12:16:32;5.00;;;4.60;;
11970;SDS011;6045;42.682;23.294;2022-08-19T12:18:59;5.10;;;4.70;;
11970;SDS011;6045;42.682;23.294;2022-08-19T12:21:29;4.97;;;4.57;;
11970;SDS011;6045;42.682;23.294;2022-08-19T12:23:59;6.32;;;4.82;;
11970;SDS011;6045;42.682;23.294;2022-08-19T12:26:27;4.65;;;4.30;;
11970;SDS011;6045;42.682;23.294;2022-08-19T12:28:57;5.07;;;4.57;;
11970;SDS011;6045;42.682;23.294;2022-08-19T12:31:25;6.32;;;4.68;;
11970;SDS011;6045;42.682;23.294;2022-08-19T12:33:53;5.20;;;4.70;;
11970;SDS011;6045;42.682;23.294;2022-08-19T12:36:20;5.50;;;5.00;;
11970;SDS011;6045;42.682;23.294;2022-08-19T12:38:48;5.03;;;4.63;;
11970;SDS011;6045;42.682;23.294;2022-08-19T12:41:16;5.38;;;4.88;;
11970;SDS011;6045;42.682;23.294;2022-08-19T12:43:44;5.07;;;4.57;;
11970;SDS011;6045;42.682;23.294;2022-08-19T12:46:14;4.78;;;4.38;;
11970;SDS011;6045;42.682;23.294;2022-08-19T12:48:41;4.93;;;4.47;;
11970;SDS011;6045;42.682;23.294;2022-08-19T12:51:11;5.38;;;4.88;;
11970;SDS011;6045;42.682;23.294;2022-08-19T12:53:40;5.03;;;4.63;;
11970;SDS011;6045;42.682;23.294;2022-08-19T12:56:07;5.20;;;4.75;;
11970;SDS011;6045;42.682;23.294;2022-08-19T12:58:37;4.97;;;4.47;;
11970;SDS011;6045;42.682;23.294;2022-08-19T13:01:07;5.18;;;4.75;;
11970;SDS011;6045;42.682;23.294;2022-08-19T13:03:36;5.25;;;4.70;;
11970;SDS011;6045;42.682;23.294;2022-08-19T13:06:03;6.93;;;4.35;;
11970;SDS011;6045;42.682;23.294;2022-08-19T13:08:30;6.93;;;4.70;;
11970;SDS011;6045;42.682;23.294;2022-08-19T13:10:57;5.72;;;4.78;;
11970;SDS011;6045;42.682;23.294;2022-08-19T13:13:24;5.72;;;5.20;;
11970;SDS011;6045;42.682;23.294;2022-08-19T13:15:53;6.05;;;5.00;;
11970;SDS011;6045;42.682;23.294;2022-08-19T13:18:28;5.07;;;4.68;;
11970;SDS011;6045;42.682;23.294;2022-08-19T13:21:01;6.03;;;5.05;;
11970;SDS011;6045;42.682;23.294;2022-08-19T13:23:29;5.03;;;4.55;;
11970;SDS011;6045;42.682;23.294;2022-08-19T13:25:56;5.70;;;5.20;;
11970;SDS011;6045;42.682;23.294;2022-08-19T13:28:23;7.70;;;4.85;;
11970;SDS011;6045;42.682;23.294;2022-08-19T13:30:50;5.28;;;4.88;;
11970;SDS011;6045;42.682;23.294;2022-08-19T13:33:36;5.82;;;4.30;;
11970;SDS011;6045;42.682;23.294;2022-08-19T13:36:03;5.80;;;5.30;;
11970;SDS011;6045;42.682;23.294;2022-08-19T13:38:32;5.90;;;5.40;;
11970;SDS011;6045;42.682;23.294;2022-08-19T13:41:03;5.38;;;4.95;;
11970;SDS011;6045;42.682;23.294;2022-08-19T13:43:31;5.70;;;5.15;;
11970;SDS011;6045;42.682;23.294;2022-08-19T13:45:59;5.57;;;4.90;;
11970;SDS011;6045;42.682;23.294;2022-08-19T13:48:34;5.72;;;5.20;;
11970;SDS011;6045;42.682;23.294;2022-08-19T13:51:01;6.18;;;5.55;;
11970;SDS011;6045;42.682;23.294;2022-08-19T13:53:35;5.30;;;4.80;;
11970;SDS011;6045;42.682;23.294;2022-08-19T13:56:04;6.50;;;5.22;;
11970;SDS011;6045;42.682;23.294;2022-08-19T13:58:32;5.57;;;5.15;;
11970;SDS011;6045;42.682;23.294;2022-08-19T14:01:00;5.50;;;5.00;;
11970;SDS011;6045;42.682;23.294;2022-08-19T14:03:29;5.95;;;5.45;;
11970;SDS011;6045;42.682;23.294;2022-08-19T14:06:02;5.35;;;4.95;;
11970;SDS011;6045;42.682;23.294;2022-08-19T14:08:29;5.93;;;5.40;;
11970;SDS011;6045;42.682;23.294;2022-08-19T14:10:57;8.30;;;6.43;;
11970;SDS011;6045;42.682;23.294;2022-08-19T14:13:24;6.75;;;5.40;;
11970;SDS011;6045;42.682;23.294;2022-08-19T14:15:53;5.82;;;5.22;;
11970;SDS011;6045;42.682;23.294;2022-08-19T14:18:21;5.85;;;5.28;;
11970;SDS011;6045;42.682;23.294;2022-08-19T14:20:50;6.10;;;5.50;;
11970;SDS011;6045;42.682;23.294;2022-08-19T14:23:17;6.10;;;5.50;;
11970;SDS011;6045;42.682;23.294;2022-08-19T14:25:45;5.50;;;5.00;;
11970;SDS011;6045;42.682;23.294;2022-08-19T14:28:12;7.18;;;5.32;;
11970;SDS011;6045;42.682;23.294;2022-08-19T14:30:41;5.93;;;5.32;;
11970;SDS011;6045;42.682;23.294;2022-08-19T14:33:12;5.45;;;5.03;;
11970;SDS011;6045;42.682;23.294;2022-08-19T14:35:40;12.57;;;5.43;;
11970;SDS011;6045;42.682;23.294;2022-08-19T14:38:14;5.68;;;5.13;;
11970;SDS011;6045;42.682;23.294;2022-08-19T14:40:42;7.63;;;5.03;;
11970;SDS011;6045;42.682;23.294;2022-08-19T14:43:11;5.07;;;4.68;;
11970;SDS011;6045;42.682;23.294;2022-08-19T14:45:38;5.65;;;5.15;;
11970;SDS011;6045;42.682;23.294;2022-08-19T14:48:06;5.68;;;5.10;;
11970;SDS011;6045;42.682;23.294;2022-08-19T14:50:34;6.28;;;4.85;;
11970;SDS011;6045;42.682;23.294;2022-08-19T14:53:04;6.47;;;5.88;;
11970;SDS011;6045;42.682;23.294;2022-08-19T14:55:33;6.20;;;5.60;;
11970;SDS011;6045;42.682;23.294;2022-08-19T14:58:00;6.53;;;5.90;;